Terminal Aerodrome Forecast
Issued by NWS

Current Version | Previous Version | Text Only | Print | Product List | Glossary On
Versions: 1 2 3 4 5 6 7 8 9 10 11 12 13 14 15 16 17 18 19 20 21 22 23 24
764
FTUS45 KGJT 022333
TAFMTJ
TAF
KMTJ 022333Z 0300/0324 VRB03KT P6SM BKN050
     FM031100 12004KT P6SM SCT060
     FM031800 35005KT P6SM SCT200=

USA.gov is the U.S. government's official web portal to all federal, state and local government web resources and services.